Time;durP1;ratioP1;P1;durP2;ratioP2;P2;SDS_P1;SDS_P2;PMS_P1;PMS_P2;Temp;Humidity;BMP_temperature;BMP_pressure;BME280_temperature;BME280_humidity;BME280_pressure;Samples;Min_cycle;Max_cycle;Signal;HPM_P1;HPM_P2
2021/12/22 00:00:32;;;;;;;17.60;8.90;;;;;;;-6.63;84.08;97419.79;107783;1282;35607;-76
2021/12/22 00:03:09;;;;;;;13.10;6.60;;;;;;;-6.60;83.94;97421.55;107744;1284;41965;-76
2021/12/22 00:05:44;;;;;;;15.60;7.00;;;;;;;-6.58;84.08;97419.48;107735;1282;33176;-76
2021/12/22 00:08:13;;;;;;;23.80;11.00;;;;;;;-6.59;84.31;97419.39;107796;1283;30422;-76
2021/12/22 00:10:43;;;;;;;18.30;8.80;;;;;;;-6.60;84.22;97417.70;107773;1284;49119;-76
2021/12/22 00:13:11;;;;;;;16.10;8.20;;;;;;;-6.59;84.17;97415.45;107779;1282;39596;-76
2021/12/22 00:15:39;;;;;;;15.90;7.30;;;;;;;-6.59;84.28;97418.14;107701;1282;36535;-76
2021/12/22 00:18:08;;;;;;;20.60;10.40;;;;;;;-6.55;84.11;97417.66;107717;1283;42390;-76
2021/12/22 00:20:36;;;;;;;23.50;11.10;;;;;;;-6.53;84.13;97421.77;107778;1282;31925;-75
2021/12/22 00:23:05;;;;;;;15.30;7.60;;;;;;;-6.54;84.11;97422.02;107776;1284;34116;-75
2021/12/22 00:25:33;;;;;;;24.20;11.20;;;;;;;-6.54;84.22;97426.66;107814;1283;34424;-75
2021/12/22 00:28:02;;;;;;;22.90;12.10;;;;;;;-6.56;84.24;97424.14;107809;1283;32294;-75
2021/12/22 00:30:31;;;;;;;25.00;11.40;;;;;;;-6.59;84.20;97427.83;107818;1284;34186;-75
2021/12/22 00:33:03;;;;;;;17.60;8.80;;;;;;;-6.65;84.48;97427.87;107803;1283;35251;-75
2021/12/22 00:35:39;;;;;;;21.20;9.50;;;;;;;-6.70;84.32;97432.97;107739;1280;35285;-76
2021/12/22 00:38:08;;;;;;;18.60;8.80;;;;;;;-6.69;84.47;97443.70;107790;1284;38846;-75
2021/12/22 00:40:38;;;;;;;15.10;9.50;;;;;;;-6.69;84.64;97441.52;107810;1283;40581;-75
2021/12/22 00:43:07;;;;;;;18.50;10.20;;;;;;;-6.70;84.82;97440.05;107710;1284;32830;-75
2021/12/22 00:45:37;;;;;;;17.00;8.90;;;;;;;-6.74;84.76;97441.50;107782;1282;33685;-75
2021/12/22 00:48:08;;;;;;;18.10;8.30;;;;;;;-6.76;84.95;97448.40;107738;1282;52810;-75
2021/12/22 00:50:39;;;;;;;19.80;12.10;;;;;;;-6.75;84.90;97447.81;107776;1281;35121;-76
2021/12/22 00:53:07;;;;;;;17.80;10.20;;;;;;;-6.73;85.14;97442.62;107731;1283;30248;-75
2021/12/22 00:55:36;;;;;;;18.90;9.60;;;;;;;-6.72;85.11;97447.33;107774;1282;33979;-75
2021/12/22 00:58:04;;;;;;;19.10;9.90;;;;;;;-6.72;85.16;97447.48;107818;1282;38201;-75
2021/12/22 01:00:33;;;;;;;19.90;10.30;;;;;;;-6.70;85.41;97450.85;107794;1282;34170;-76
2021/12/22 01:03:01;;;;;;;20.50;9.90;;;;;;;-6.65;85.23;97447.63;107813;1282;39779;-75
2021/12/22 01:05:30;;;;;;;14.90;7.60;;;;;;;-6.63;85.22;97446.77;107822;1282;38761;-76
2021/12/22 01:07:59;;;;;;;16.90;7.60;;;;;;;-6.59;85.29;97445.86;107714;1283;37856;-76
2021/12/22 01:10:30;;;;;;;15.80;8.00;;;;;;;-6.51;85.30;97434.93;107727;1283;41556;-76
2021/12/22 01:13:01;;;;;;;19.50;9.90;;;;;;;-6.43;85.09;97439.32;107717;1282;48826;-76
2021/12/22 01:15:30;;;;;;;21.60;10.90;;;;;;;-6.38;85.03;97443.66;107817;1283;36523;-76
2021/12/22 01:18:02;;;;;;;20.60;9.00;;;;;;;-6.38;85.07;97445.60;107786;1282;31961;-76
2021/12/22 01:20:36;;;;;;;19.40;9.00;;;;;;;-6.36;84.98;97448.71;107801;1281;32457;-76
2021/12/22 01:23:06;;;;;;;19.10;10.20;;;;;;;-6.33;84.86;97446.16;107773;1282;38816;-76
2021/12/22 01:25:38;;;;;;;14.80;8.20;;;;;;;-6.30;84.61;97452.34;107648;1283;42953;-76
2021/12/22 01:28:06;;;;;;;21.40;8.80;;;;;;;-6.28;84.78;97456.90;107755;1283;33232;-76
2021/12/22 01:30:41;;;;;;;18.80;10.00;;;;;;;-6.25;84.85;97455.91;107749;1282;43833;-76
2021/12/22 01:33:10;;;;;;;16.90;8.50;;;;;;;-6.23;84.70;97453.98;107798;1283;37263;-76
2021/12/22 01:35:39;;;;;;;16.20;8.20;;;;;;;-6.21;84.35;97454.83;107725;1284;34835;-76
2021/12/22 01:38:07;;;;;;;15.90;7.90;;;;;;;-6.20;84.40;97454.38;107741;1283;44094;-76
2021/12/22 01:40:39;;;;;;;23.40;10.90;;;;;;;-6.20;84.44;97449.73;107764;1283;30858;-76
2021/12/22 01:43:08;;;;;;;24.00;10.00;;;;;;;-6.18;84.37;97447.45;107752;1283;39517;-76
2021/12/22 01:45:55;;;;;;;19.40;9.90;;;;;;;-6.15;84.43;97443.36;107811;1282;32704;-76
2021/12/22 01:51:34;;;;;;;20.30;8.60;;;;;;;-6.12;84.13;97439.86;107834;1282;36363;-76
2021/12/22 01:54:08;;;;;;;16.00;8.50;;;;;;;-6.23;84.01;97436.85;107774;1284;41600;-76
2021/12/22 01:56:36;;;;;;;22.70;11.50;;;;;;;-6.33;84.15;97443.41;107757;1283;40280;-76
2021/12/22 01:59:08;;;;;;;14.50;6.80;;;;;;;-6.32;84.40;97441.00;107753;1283;34609;-76
2021/12/22 02:01:37;;;;;;;21.80;9.50;;;;;;;-6.26;84.30;97447.77;107844;1283;36421;-76
2021/12/22 02:04:10;;;;;;;24.40;12.00;;;;;;;-6.21;84.31;97450.21;107693;1282;33332;-76
2021/12/22 02:06:39;;;;;;;20.10;10.80;;;;;;;-6.16;84.21;97450.88;107785;1283;29830;-76
2021/12/22 02:09:09;;;;;;;20.90;10.80;;;;;;;-6.12;84.37;97455.47;107735;1283;39375;-76
2021/12/22 02:11:38;;;;;;;19.60;9.50;;;;;;;-6.11;84.07;97457.12;107748;1283;34869;-76
2021/12/22 02:14:07;;;;;;;20.10;9.70;;;;;;;-6.13;84.10;97455.18;107745;1284;36553;-76
2021/12/22 02:16:38;;;;;;;21.20;11.10;;;;;;;-6.13;84.09;97456.98;107704;1283;39997;-76
2021/12/22 02:19:09;;;;;;;25.80;10.10;;;;;;;-6.15;83.82;97457.91;107779;1281;37466;-76
2021/12/22 02:21:42;;;;;;;23.30;9.30;;;;;;;-6.17;83.78;97462.20;107674;1282;42406;-76
2021/12/22 02:24:11;;;;;;;15.50;8.70;;;;;;;-6.19;83.84;97460.48;107760;1283;32422;-76
2021/12/22 02:26:46;;;;;;;13.20;7.80;;;;;;;-6.22;83.70;97453.24;107748;1283;38883;-77
2021/12/22 02:29:20;;;;;;;17.90;8.40;;;;;;;-6.19;83.88;97453.21;107841;1282;35548;-76
2021/12/22 02:32:01;;;;;;;22.40;8.90;;;;;;;-6.14;84.07;97448.27;107926;1282;30640;-76
2021/12/22 02:34:39;;;;;;;13.60;7.70;;;;;;;-6.06;83.89;97448.86;107789;1283;40891;-76
2021/12/22 02:37:12;;;;;;;16.20;8.60;;;;;;;-6.02;83.80;97448.41;107793;1282;38364;-76
2021/12/22 02:39:46;;;;;;;16.80;7.70;;;;;;;-5.94;83.69;97450.75;107838;1281;35249;-76
2021/12/22 02:42:19;;;;;;;9.60;5.90;;;;;;;-5.88;83.65;97448.92;107836;1282;41938;-76
2021/12/22 02:44:50;;;;;;;15.00;7.10;;;;;;;-5.84;83.38;97446.42;107929;1283;33460;-76
2021/12/22 02:47:20;;;;;;;11.70;6.50;;;;;;;-5.79;82.93;97444.77;107924;1283;40106;-76
2021/12/22 02:49:49;;;;;;;14.80;6.90;;;;;;;-5.76;83.01;97445.95;107922;1282;38563;-76
2021/12/22 02:52:18;;;;;;;14.00;7.60;;;;;;;-5.74;82.63;97443.34;107913;1278;31180;-76
2021/12/22 02:54:49;;;;;;;11.50;7.60;;;;;;;-5.73;82.49;97444.31;107918;1282;34432;-76
2021/12/22 02:57:25;;;;;;;9.30;5.10;;;;;;;-5.73;82.38;97443.58;107982;1284;36592;-76
2021/12/22 03:00:21;;;;;;;15.10;6.90;;;;;;;-5.72;82.12;97445.90;107788;1283;40068;-76
2021/12/22 03:02:47;;;;;;;14.40;7.00;;;;;;;-5.73;82.00;97449.13;107841;1283;31218;-76
2021/12/22 03:05:17;;;;;;;10.70;5.40;;;;;;;-5.74;81.99;97452.96;107916;1282;44864;-76
2021/12/22 03:07:47;;;;;;;14.30;6.40;;;;;;;-5.74;81.96;97452.80;107845;1283;36192;-76
2021/12/22 03:10:18;;;;;;;;;;;;;;;-5.73;81.71;97461.81;107949;1283;31697;-76
2021/12/22 03:12:51;;;;;;;11.90;6.30;;;;;;;-5.72;81.74;97462.62;107861;1283;46897;-76
2021/12/22 03:15:20;;;;;;;15.90;7.80;;;;;;;-5.73;81.43;97466.85;107887;1282;34353;-76
2021/12/22 03:17:49;;;;;;;13.10;7.40;;;;;;;-5.75;81.65;97468.23;107871;1282;39100;-76
2021/12/22 03:20:17;;;;;;;15.00;7.10;;;;;;;-5.73;81.48;97473.88;107905;1282;36311;-76
2021/12/22 03:22:47;;;;;;;14.30;5.90;;;;;;;-5.72;81.37;97473.80;107956;1281;31348;-76
2021/12/22 03:25:17;;;;;;;11.00;5.40;;;;;;;-5.73;81.10;97472.69;107848;1281;32923;-75
2021/12/22 03:27:46;;;;;;;;;;;;;;;-5.74;80.93;97470.04;107813;1283;33020;-75
2021/12/22 03:30:16;;;;;;;20.80;7.10;;;;;;;-5.74;80.92;97473.11;107744;1283;39824;-75
2021/12/22 03:32:45;;;;;;;14.40;6.10;;;;;;;-5.75;80.93;97472.94;107808;1281;34064;-75
2021/12/22 03:35:17;;;;;;;14.00;7.10;;;;;;;-5.76;80.96;97470.05;107882;1282;36296;-75
2021/12/22 03:37:48;;;;;;;16.60;8.50;;;;;;;-5.75;81.10;97474.27;107848;1284;30167;-75
2021/12/22 03:40:17;;;;;;;11.80;6.30;;;;;;;-5.74;81.35;97478.48;107859;1282;40894;-75
2021/12/22 03:42:45;;;;;;;13.60;7.80;;;;;;;-5.75;81.13;97479.50;107790;1282;44043;-75
2021/12/22 03:45:14;;;;;;;18.30;7.50;;;;;;;-5.76;81.29;97475.23;107806;1281;29866;-75
2021/12/22 03:47:43;;;;;;;14.30;6.00;;;;;;;-5.74;81.33;97478.02;107872;1283;32306;-76
2021/12/22 03:50:12;;;;;;;15.60;7.90;;;;;;;-5.75;81.34;97476.52;107756;1283;36379;-75
2021/12/22 03:52:41;;;;;;;10.10;5.80;;;;;;;-5.78;81.37;97475.77;107757;1282;33191;-75
2021/12/22 03:55:11;;;;;;;13.30;4.90;;;;;;;-5.81;81.50;97470.21;107716;1283;39443;-75
2021/12/22 03:57:39;;;;;;;11.40;5.00;;;;;;;-5.83;81.61;97472.31;107762;1283;31315;-76
2021/12/22 04:00:12;;;;;;;12.90;6.00;;;;;;;-5.84;81.31;97472.41;107788;1283;42447;-76
2021/12/22 04:02:40;;;;;;;12.00;5.50;;;;;;;-5.85;81.04;97466.84;107961;1282;40658;-75
2021/12/22 04:05:10;;;;;;;11.00;6.70;;;;;;;-5.87;80.76;97474.14;107738;1284;39131;-75
2021/12/22 04:07:39;;;;;;;16.60;8.20;;;;;;;-5.93;80.74;97471.29;107835;1282;36939;-75
2021/12/22 04:10:19;;;;;;;17.10;7.40;;;;;;;-5.96;80.66;97467.62;107857;1283;41142;-76
2021/12/22 04:12:47;;;;;;;18.00;8.50;;;;;;;-6.02;80.87;97471.02;107843;1284;37788;-75
2021/12/22 04:15:16;;;;;;;17.00;7.00;;;;;;;-6.12;81.05;97461.80;107799;1282;30237;-75
2021/12/22 04:17:44;;;;;;;12.20;7.10;;;;;;;-6.21;81.05;97461.70;107854;1282;30976;-75
2021/12/22 04:20:13;;;;;;;18.80;9.20;;;;;;;-6.32;81.39;97467.09;107732;1283;47001;-75
2021/12/22 04:22:41;;;;;;;24.50;10.70;;;;;;;-6.40;81.88;97471.19;107707;1281;34582;-75
2021/12/22 04:25:13;;;;;;;14.70;8.30;;;;;;;-6.47;81.83;97469.79;107812;1283;37802;-75
2021/12/22 04:27:41;;;;;;;16.80;8.50;;;;;;;-6.53;81.96;97469.90;107842;1282;43275;-75
2021/12/22 04:30:12;;;;;;;18.50;9.10;;;;;;;-6.58;82.02;97477.70;107756;1281;33742;-75
2021/12/22 04:32:41;;;;;;;16.40;7.70;;;;;;;-6.66;82.13;97482.82;107742;1284;42619;-76
2021/12/22 04:35:10;;;;;;;19.70;10.30;;;;;;;-6.74;82.37;97475.70;107897;1283;29260;-75
2021/12/22 04:37:38;;;;;;;23.20;9.20;;;;;;;-6.78;82.51;97482.29;107753;1281;33737;-75
2021/12/22 04:40:09;;;;;;;17.80;7.80;;;;;;;-6.77;82.84;97479.78;107866;1283;34665;-75
2021/12/22 04:42:37;;;;;;;19.70;8.50;;;;;;;-6.76;82.85;97484.13;107823;1281;33326;-75
2021/12/22 04:45:08;;;;;;;16.00;9.60;;;;;;;-6.79;83.15;97484.11;107789;1283;34734;-75
2021/12/22 04:47:37;;;;;;;18.30;8.40;;;;;;;-6.82;83.05;97487.13;107872;1284;33175;-76
2021/12/22 04:50:13;;;;;;;12.30;7.20;;;;;;;-6.85;83.02;97487.20;107710;1283;45205;-75
2021/12/22 04:52:48;;;;;;;16.40;7.30;;;;;;;-6.84;83.09;97488.34;107767;1283;36665;-75
2021/12/22 04:55:16;;;;;;;19.40;9.50;;;;;;;-6.79;83.14;97487.02;107835;1280;32259;-76
2021/12/22 04:57:44;;;;;;;14.40;7.50;;;;;;;-6.73;83.36;97495.24;107713;1282;39612;-76
2021/12/22 05:00:15;;;;;;;15.30;8.90;;;;;;;-6.70;83.38;97488.56;107806;1281;32308;-76
2021/12/22 05:02:44;;;;;;;15.40;8.90;;;;;;;-6.66;83.23;97485.75;107857;1282;38911;-76
2021/12/22 05:05:13;;;;;;;22.40;10.50;;;;;;;-6.68;83.39;97487.77;107796;1283;30687;-76
2021/12/22 05:07:42;;;;;;;15.20;6.30;;;;;;;-6.70;83.32;97485.24;107763;1282;30810;-76
2021/12/22 05:10:11;;;;;;;20.50;9.30;;;;;;;-6.76;82.82;97491.88;107778;1283;44478;-76
2021/12/22 05:12:40;;;;;;;18.00;10.10;;;;;;;-6.80;83.11;97489.56;107767;1283;34398;-76
2021/12/22 05:15:09;;;;;;;17.20;9.70;;;;;;;-6.79;83.07;97495.10;107759;1282;31945;-76
2021/12/22 05:18:00;;;;;;;19.80;9.70;;;;;;;-6.78;83.00;97495.15;107730;1282;39161;-76
2021/12/22 05:20:28;;;;;;;18.70;9.40;;;;;;;-6.75;83.14;97494.73;107874;1282;47146;-76
2021/12/22 05:22:56;;;;;;;17.80;8.40;;;;;;;-6.78;83.01;97489.45;107822;1282;36201;-75
2021/12/22 05:25:24;;;;;;;22.50;10.70;;;;;;;-6.80;82.91;97494.27;107883;1282;30852;-75
2021/12/22 05:27:52;;;;;;;15.40;7.50;;;;;;;-6.81;83.20;97496.45;107880;1283;43682;-76
2021/12/22 05:30:20;;;;;;;9.20;5.90;;;;;;;-6.82;83.39;97495.73;108018;1283;29819;-75
2021/12/22 05:32:53;;;;;;;14.10;8.30;;;;;;;-6.84;83.45;97497.14;107912;1282;41260;-75
2021/12/22 05:35:24;;;;;;;14.80;7.40;;;;;;;-6.84;83.76;97497.78;107869;1283;36052;-76
2021/12/22 05:37:52;;;;;;;11.30;6.30;;;;;;;-6.83;83.95;97498.36;107835;1283;39907;-75
2021/12/22 05:40:21;;;;;;;20.00;11.10;;;;;;;-6.83;83.79;97496.14;107823;1281;40896;-75
2021/12/22 05:42:49;;;;;;;22.70;9.40;;;;;;;-6.79;83.87;97494.59;107859;1283;32557;-75
2021/12/22 05:45:18;;;;;;;19.40;9.70;;;;;;;-6.74;84.19;97493.52;107957;1282;31981;-75
2021/12/22 05:47:46;;;;;;;11.60;7.20;;;;;;;-6.69;84.20;97494.10;107827;1283;37326;-75
2021/12/22 05:50:14;;;;;;;12.10;6.80;;;;;;;-6.66;84.22;97491.04;107748;1284;35328;-76
2021/12/22 05:52:43;;;;;;;15.00;8.50;;;;;;;-6.64;84.14;97498.20;107781;1283;31651;-76
2021/12/22 05:55:11;;;;;;;15.50;9.10;;;;;;;-6.61;84.20;97502.11;107811;1284;34841;-75
2021/12/22 05:57:40;;;;;;;20.50;9.50;;;;;;;-6.61;84.21;97505.52;107904;1282;33208;-76
2021/12/22 06:00:11;;;;;;;21.80;9.00;;;;;;;-6.62;84.42;97510.42;107830;1282;36085;-75
2021/12/22 06:02:39;;;;;;;19.20;8.20;;;;;;;-6.57;84.74;97515.52;107888;1281;37801;-76
2021/12/22 06:05:09;;;;;;;17.50;10.20;;;;;;;-6.50;84.96;97517.73;107879;1282;30701;-76
2021/12/22 06:07:37;;;;;;;;;;;;;;;-6.46;84.75;97519.56;107946;1282;34982;-76
2021/12/22 06:10:07;;;;;;;19.00;8.20;;;;;;;-6.44;84.96;97521.63;107839;1281;34038;-76
2021/12/22 06:12:35;;;;;;;14.90;8.50;;;;;;;-6.40;84.71;97526.48;107759;1283;41600;-76
2021/12/22 06:15:04;;;;;;;14.10;7.10;;;;;;;-6.36;84.66;97527.84;107810;1283;39827;-76
2021/12/22 06:17:32;;;;;;;16.00;7.80;;;;;;;-6.31;84.85;97528.59;107785;1282;37904;-76
2021/12/22 06:20:00;;;;;;;19.40;10.40;;;;;;;-6.24;84.65;97533.73;107785;1283;38471;-76
2021/12/22 06:22:30;;;;;;;15.80;8.20;;;;;;;-6.21;84.90;97535.80;107852;1282;30194;-76
2021/12/22 06:24:58;;;;;;;;;;;;;;;-6.15;84.75;97540.95;107738;1282;39594;-76
2021/12/22 06:27:26;;;;;;;13.00;7.00;;;;;;;-6.09;84.94;97546.85;107834;1284;30731;-76
2021/12/22 06:29:54;;;;;;;14.90;7.40;;;;;;;-6.02;84.97;97547.89;107754;1283;44517;-76
2021/12/22 06:32:25;;;;;;;15.20;7.80;;;;;;;-5.98;84.90;97551.15;107912;1283;35548;-76
2021/12/22 06:34:53;;;;;;;15.30;8.40;;;;;;;-5.94;84.64;97553.88;107788;1282;34867;-76
2021/12/22 06:37:24;;;;;;;13.80;8.00;;;;;;;-5.95;84.61;97555.48;107799;1282;33343;-76
2021/12/22 06:39:53;;;;;;;18.00;8.40;;;;;;;-6.03;84.65;97562.96;107907;1283;31596;-76
2021/12/22 06:42:22;;;;;;;16.30;7.60;;;;;;;-6.06;84.78;97560.30;107825;1283;30946;-76
2021/12/22 06:44:51;;;;;;;19.00;9.50;;;;;;;-6.04;84.81;97560.48;107842;1283;38745;-76
2021/12/22 06:47:20;;;;;;;15.00;8.40;;;;;;;-6.05;84.78;97564.41;107788;1283;40737;-76
2021/12/22 06:49:48;;;;;;;16.30;8.50;;;;;;;-6.08;84.97;97565.50;107801;1282;46811;-76
2021/12/22 06:52:17;;;;;;;17.30;9.90;;;;;;;-6.08;85.06;97569.66;107843;1283;34838;-76
2021/12/22 06:54:46;;;;;;;17.50;9.10;;;;;;;-6.10;85.10;97576.17;107754;1284;39038;-76
2021/12/22 06:57:19;;;;;;;18.50;9.20;;;;;;;-6.08;85.19;97574.63;107765;1282;29102;-76
2021/12/22 06:59:47;;;;;;;16.60;7.80;;;;;;;-6.04;85.22;97575.27;107850;1283;35338;-76
2021/12/22 07:02:16;;;;;;;18.20;9.90;;;;;;;-6.04;85.16;97578.68;107841;1283;31360;-76
2021/12/22 07:04:45;;;;;;;18.20;9.70;;;;;;;-6.05;85.15;97577.64;107812;1284;33160;-76
2021/12/22 07:07:13;;;;;;;16.90;9.00;;;;;;;-6.04;85.19;97582.39;107768;1281;33070;-76
2021/12/22 07:09:43;;;;;;;16.00;7.70;;;;;;;-6.01;85.08;97587.89;107728;1284;39022;-76
2021/12/22 07:12:13;;;;;;;20.10;9.80;;;;;;;-6.04;85.28;97594.20;107846;1283;28978;-76
2021/12/22 07:14:43;;;;;;;18.00;8.40;;;;;;;-6.05;85.19;97595.70;107899;1282;41639;-76
2021/12/22 07:17:12;;;;;;;14.70;7.90;;;;;;;-6.06;85.05;97604.88;107957;1281;30008;-76
2021/12/22 07:19:40;;;;;;;13.80;8.30;;;;;;;-6.04;85.26;97601.98;107634;1283;40112;-76
2021/12/22 07:22:09;;;;;;;15.50;8.50;;;;;;;-5.98;85.33;97604.17;107695;1282;37162;-76
2021/12/22 07:24:38;;;;;;;19.70;9.40;;;;;;;-5.93;85.41;97606.04;107746;1283;33999;-76
2021/12/22 07:27:06;;;;;;;15.20;7.20;;;;;;;-5.86;85.32;97608.27;107731;1283;41819;-76
2021/12/22 07:29:35;;;;;;;20.00;8.90;;;;;;;-5.85;85.08;97607.63;107793;1283;29482;-76
2021/12/22 07:32:04;;;;;;;18.70;9.30;;;;;;;-5.82;85.21;97610.16;107848;1282;40429;-76
2021/12/22 07:34:43;;;;;;;21.60;9.60;;;;;;;-5.78;85.46;97610.38;107580;1272;269415;-76
2021/12/22 07:37:22;;;;;;;18.00;8.60;;;;;;;-5.71;85.30;97611.38;107741;1283;32477;-76
2021/12/22 07:39:52;;;;;;;11.70;6.50;;;;;;;-5.65;85.30;97612.38;107908;1283;33923;-76
2021/12/22 07:42:20;;;;;;;17.90;9.80;;;;;;;-5.62;85.32;97617.61;107803;1283;35391;-76
2021/12/22 07:44:50;;;;;;;18.20;9.30;;;;;;;-5.58;85.29;97619.98;107955;1283;38204;-76
2021/12/22 07:47:18;;;;;;;16.90;9.30;;;;;;;-5.54;85.30;97623.45;107873;1283;29497;-76
2021/12/22 07:49:47;;;;;;;15.80;9.00;;;;;;;-5.50;85.53;97627.90;107813;1281;40486;-76
2021/12/22 07:52:15;;;;;;;13.20;7.90;;;;;;;-5.48;85.40;97627.94;107842;1283;35496;-76
2021/12/22 07:54:44;;;;;;;13.90;7.80;;;;;;;-5.44;85.56;97628.05;107750;1282;37527;-76
2021/12/22 07:57:12;;;;;;;15.90;8.70;;;;;;;-5.41;85.69;97625.77;107749;1282;35280;-76
2021/12/22 07:59:40;;;;;;;16.60;8.70;;;;;;;-5.37;85.37;97628.37;107801;1283;46338;-76
2021/12/22 08:02:09;;;;;;;16.20;8.40;;;;;;;-5.34;85.46;97625.73;107772;1282;37933;-76
2021/12/22 08:04:38;;;;;;;16.00;8.70;;;;;;;-5.32;85.50;97630.09;107849;1283;37480;-76
2021/12/22 08:07:07;;;;;;;17.00;8.10;;;;;;;-5.27;85.71;97627.91;107834;1283;33113;-76
2021/12/22 08:09:36;;;;;;;13.60;8.30;;;;;;;-5.24;85.53;97632.09;107876;1282;39094;-76
2021/12/22 08:12:08;;;;;;;19.60;9.90;;;;;;;-5.21;85.77;97632.92;107903;1282;35396;-76
2021/12/22 08:14:38;;;;;;;18.20;9.50;;;;;;;-5.13;85.72;97633.19;107825;1282;45969;-76
2021/12/22 08:17:10;;;;;;;18.00;9.30;;;;;;;-5.06;85.87;97632.00;107924;1282;34126;-76
2021/12/22 08:19:39;;;;;;;20.60;11.50;;;;;;;-5.02;86.02;97632.08;107886;1283;37732;-76
2021/12/22 08:22:07;;;;;;;17.60;11.30;;;;;;;-4.92;86.10;97636.39;107910;1283;36620;-76
2021/12/22 08:24:37;;;;;;;23.00;11.80;;;;;;;-4.82;86.21;97635.38;107850;1282;35407;-76
2021/12/22 08:27:06;;;;;;;19.60;11.20;;;;;;;-4.72;86.07;97633.39;107915;1283;36222;-76
2021/12/22 08:29:41;;;;;;;28.20;14.80;;;;;;;-4.65;86.09;97633.16;107940;1283;31955;-76
2021/12/22 08:32:11;;;;;;;26.40;15.00;;;;;;;-4.56;86.38;97634.27;107925;1284;47577;-76
2021/12/22 08:34:41;;;;;;;23.10;13.30;;;;;;;-4.48;86.35;97633.23;107851;1283;33994;-76
2021/12/22 08:39:59;;;;;;;22.40;14.40;;;;;;;-4.59;86.10;97634.92;107918;1283;35179;-76
2021/12/22 08:42:28;;;;;;;26.40;15.90;;;;;;;-4.67;86.14;97642.80;107829;1282;36369;-76
2021/12/22 08:44:56;;;;;;;28.60;16.50;;;;;;;-4.74;86.54;97645.84;107903;1283;34460;-76
2021/12/22 08:47:25;;;;;;;35.20;18.20;;;;;;;-4.75;86.59;97650.04;107877;1283;41975;-76
2021/12/22 08:49:53;;;;;;;33.30;18.30;;;;;;;-4.69;86.75;97655.93;107889;1283;33846;-76
2021/12/22 08:52:23;;;;;;;40.20;22.30;;;;;;;-4.61;86.85;97656.55;107924;1283;32826;-76
2021/12/22 08:54:52;;;;;;;40.10;22.20;;;;;;;-4.56;86.87;97662.92;107747;1284;37685;-76
2021/12/22 08:57:21;;;;;;;32.50;19.10;;;;;;;-4.54;86.72;97666.01;107827;1284;39231;-76
2021/12/22 08:59:50;;;;;;;40.50;21.20;;;;;;;-4.49;86.84;97659.98;107810;1284;37188;-76
2021/12/22 09:02:19;;;;;;;34.40;19.50;;;;;;;-4.41;86.92;97658.73;107850;1284;33411;-76
2021/12/22 09:04:48;;;;;;;42.70;22.30;;;;;;;-4.43;86.63;97654.66;107945;1283;36623;-76
2021/12/22 09:07:28;;;;;;;32.90;18.60;;;;;;;-4.36;86.87;97657.39;107920;1283;32260;-76
2021/12/22 09:09:57;;;;;;;29.90;17.50;;;;;;;-4.25;86.87;97652.79;107766;1283;33272;-76
2021/12/22 09:12:27;;;;;;;35.80;19.60;;;;;;;-4.12;86.79;97655.13;107757;1282;33083;-76
2021/12/22 09:14:55;;;;;;;;;;;;;;;-4.03;86.83;97654.09;107946;1284;33459;-76
2021/12/22 09:17:28;;;;;;;35.40;21.50;;;;;;;-3.99;86.56;97651.66;107792;1281;36181;-76
2021/12/22 09:19:59;;;;;;;34.20;20.90;;;;;;;-3.98;86.49;97652.89;107693;1284;34004;-76
2021/12/22 09:22:32;;;;;;;32.70;20.80;;;;;;;-3.88;86.51;97656.73;107722;1284;28817;-76
2021/12/22 09:25:04;;;;;;;36.30;21.60;;;;;;;-3.87;86.27;97656.52;107724;1284;36585;-76
2021/12/22 09:27:33;;;;;;;38.70;21.90;;;;;;;-3.91;85.97;97658.58;107751;1283;32014;-75
2021/12/22 09:30:08;;;;;;;34.30;20.50;;;;;;;-3.96;85.63;97657.99;107760;1283;38300;-75
2021/12/22 09:32:38;;;;;;;40.90;22.90;;;;;;;-3.95;85.67;97662.43;107954;1283;32783;-75
2021/12/22 09:35:09;;;;;;;33.40;20.30;;;;;;;-3.94;85.61;97664.38;107933;1283;34503;-75
2021/12/22 09:37:38;;;;;;;29.40;18.20;;;;;;;-3.94;85.35;97663.64;107778;1282;35239;-75
2021/12/22 09:40:10;;;;;;;48.90;24.20;;;;;;;-3.87;85.43;97664.91;107733;1283;53087;-75
2021/12/22 09:42:39;;;;;;;57.30;27.80;;;;;;;-3.89;85.15;97665.53;107767;1282;36419;-76
2021/12/22 09:45:09;;;;;;;32.50;18.70;;;;;;;-3.96;84.99;97668.75;107774;1283;31875;-75
2021/12/22 09:47:51;;;;;;;28.20;16.20;;;;;;;-3.97;84.86;97669.14;107705;1281;45932;-76
2021/12/22 09:50:38;;;;;;;31.10;17.40;;;;;;;-3.89;84.88;97668.12;107742;1284;32534;-76
2021/12/22 09:53:08;;;;;;;28.70;17.10;;;;;;;-3.74;85.08;97665.69;107769;1281;35459;-76
2021/12/22 09:55:36;;;;;;;30.50;16.40;;;;;;;-3.67;84.76;97663.73;107880;1283;35690;-76
2021/12/22 09:58:06;;;;;;;26.90;14.40;;;;;;;-3.60;84.51;97665.40;107772;1283;39690;-75
2021/12/22 10:00:35;;;;;;;28.00;15.70;;;;;;;-3.46;84.43;97662.05;107762;1283;33448;-76
2021/12/22 10:03:06;;;;;;;32.30;18.90;;;;;;;-3.38;84.02;97666.19;107796;1283;36794;-76
2021/12/22 10:05:35;;;;;;;30.90;16.90;;;;;;;-3.31;83.97;97664.88;107700;1284;42643;-76
2021/12/22 10:08:08;;;;;;;27.70;17.00;;;;;;;-3.09;83.96;97662.66;107740;1283;32021;-76
2021/12/22 10:10:38;;;;;;;25.90;14.80;;;;;;;-2.88;83.86;97662.35;107720;1283;39654;-76
2021/12/22 10:13:09;;;;;;;26.90;13.90;;;;;;;-2.76;82.86;97663.25;107884;1282;39601;-76
2021/12/22 10:15:38;;;;;;;20.70;12.80;;;;;;;-2.72;82.06;97662.64;107856;1284;32207;-76
2021/12/22 10:18:14;;;;;;;28.10;14.90;;;;;;;-2.80;81.34;97660.95;107721;1283;40308;-76
2021/12/22 10:20:46;;;;;;;27.40;15.30;;;;;;;-2.90;80.97;97663.33;107717;1283;50276;-76
2021/12/22 10:23:23;;;;;;;21.20;12.80;;;;;;;-3.04;80.87;97658.21;107909;1282;32855;-76
2021/12/22 10:25:55;;;;;;;26.10;14.90;;;;;;;-3.03;80.90;97647.51;107889;1282;33480;-76
2021/12/22 10:28:26;;;;;;;21.50;13.00;;;;;;;-3.01;80.78;97649.05;107907;1284;38044;-76
2021/12/22 10:30:58;;;;;;;26.40;13.40;;;;;;;-2.94;80.75;97643.82;107907;1282;35241;-76
2021/12/22 10:33:30;;;;;;;26.50;15.20;;;;;;;-2.99;80.28;97648.35;107860;1283;41075;-76
2021/12/22 10:36:00;;;;;;;24.30;14.30;;;;;;;-3.24;79.67;97647.05;107720;1284;39340;-76
2021/12/22 10:38:33;;;;;;;31.60;18.30;;;;;;;-3.46;79.75;97644.55;107873;1282;44078;-76
2021/12/22 10:41:04;;;;;;;34.30;17.50;;;;;;;-3.57;80.10;97645.48;107725;1283;34958;-76
2021/12/22 10:43:34;;;;;;;27.80;15.20;;;;;;;-3.60;80.33;97645.70;107775;1283;32169;-76
2021/12/22 10:46:04;;;;;;;35.60;17.60;;;;;;;-3.65;80.26;97645.80;107780;1284;31633;-76
2021/12/22 10:51:28;;;;;;;26.60;15.30;;;;;;;-3.49;80.60;97644.63;107712;1282;33994;-76
2021/12/22 10:53:58;;;;;;;30.70;15.80;;;;;;;-3.27;81.13;97642.67;107880;1284;39505;-76
2021/12/22 10:56:29;;;;;;;26.80;15.60;;;;;;;-3.08;81.06;97642.40;107723;1283;39359;-76
2021/12/22 10:59:07;;;;;;;27.60;15.30;;;;;;;-2.96;80.70;97642.78;107773;1284;32698;-76
2021/12/22 11:01:38;;;;;;;24.50;14.20;;;;;;;-2.84;80.67;97644.07;107699;1284;37327;-76
2021/12/22 11:04:16;;;;;;;26.50;16.10;;;;;;;-2.79;80.50;97640.27;107774;1283;29227;-76
2021/12/22 11:06:48;;;;;;;30.30;15.80;;;;;;;-2.77;80.48;97638.04;107806;1283;38077;-76
2021/12/22 11:09:18;;;;;;;33.20;18.00;;;;;;;-2.73;80.16;97641.30;107875;1283;30575;-76
2021/12/22 11:11:50;;;;;;;30.60;17.40;;;;;;;-2.82;79.98;97640.04;107852;1284;33594;-76
2021/12/22 11:14:22;;;;;;;35.70;19.10;;;;;;;-2.92;79.92;97633.40;107804;1283;32077;-76
2021/12/22 11:17:03;;;;;;;28.30;16.30;;;;;;;-3.02;79.80;97630.33;107831;1284;32296;-76
2021/12/22 11:19:33;;;;;;;31.40;15.60;;;;;;;-3.02;79.38;97629.29;107646;1284;45916;-76
2021/12/22 11:22:10;;;;;;;28.20;17.00;;;;;;;-3.17;79.16;97626.53;107903;1283;32217;-76
2021/12/22 11:24:43;;;;;;;29.80;17.50;;;;;;;-3.18;79.28;97625.64;107916;1283;30160;-76
2021/12/22 11:27:14;;;;;;;27.50;13.70;;;;;;;-3.18;79.41;97630.11;107803;1284;37556;-76
2021/12/22 11:29:45;;;;;;;27.90;15.90;;;;;;;-3.10;79.50;97628.78;107790;1283;32973;-76
2021/12/22 11:32:17;;;;;;;24.70;14.60;;;;;;;-3.04;79.57;97628.41;107696;1284;34760;-76
2021/12/22 11:34:51;;;;;;;27.20;15.90;;;;;;;-2.97;79.39;97628.70;107708;1283;39687;-76
2021/12/22 11:37:21;;;;;;;23.60;13.60;;;;;;;-2.94;79.24;97624.43;107837;1283;34892;-76